Time;durP1;ratioP1;P1;durP2;ratioP2;P2;SDS_P1;SDS_P2;PMS_P1;PMS_P2;Temp;Humidity;BMP_temperature;BMP_pressure;BME280_temperature;BME280_humidity;BME280_pressure;Samples;Min_cycle;Max_cycle;Signal;HPM_P1;HPM_P2
2022/01/13 00:00:16;;;;;;;15.37;14.53;;;19.20;53.20;;;;;;5053891;28;20448;-59
2022/01/13 00:02:43;;;;;;;14.60;13.80;;;19.10;53.40;;;;;;5050160;28;20943;-56
2022/01/13 00:05:12;;;;;;;15.80;14.95;;;19.10;53.60;;;;;;5033733;28;20449;-57
2022/01/13 00:07:38;;;;;;;14.80;14.10;;;19.00;53.70;;;;;;5033823;28;20958;-53
2022/01/13 00:10:07;;;;;;;14.50;13.80;;;19.00;53.90;;;;;;5033909;28;20449;-52
2022/01/13 00:12:38;;;;;;;15.83;14.93;;;18.90;54.10;;;;;;5034816;28;20453;-52
2022/01/13 00:15:21;;;;;;;16.40;15.40;;;18.90;54.40;;;;;;5053515;28;20876;-57
2022/01/13 00:18:10;;;;;;;15.17;14.30;;;18.80;54.10;;;;;;5053534;28;20503;-53
2022/01/13 00:21:10;;;;;;;14.97;14.20;;;18.80;54.50;;;;;;5053471;28;20789;-53
2022/01/13 00:23:42;;;;;;;14.07;13.37;;;18.80;54.70;;;;;;5013463;28;20477;-57
2022/01/13 00:26:16;;;;;;;15.13;14.37;;;18.80;54.90;;;;;;5013630;28;20519;-52
2022/01/13 00:28:44;;;;;;;14.77;14.10;;;18.70;54.90;;;;;;5013609;28;20497;-52
2022/01/13 00:31:11;;;;;;;14.10;13.50;;;18.70;55.10;;;;;;5020873;28;20495;-55
2022/01/13 00:33:43;;;;;;;14.30;13.67;;;18.70;55.30;;;;;;5052978;28;20459;-57
2022/01/13 00:36:12;;;;;;;14.30;13.70;;;18.60;55.60;;;;;;5053218;28;20444;-55
2022/01/13 00:38:39;;;;;;;14.70;14.00;;;18.60;56.00;;;;;;5053027;28;20490;-57
2022/01/13 00:41:06;;;;;;;14.30;13.70;;;18.50;56.30;;;;;;5036473;28;20472;-53
2022/01/13 00:43:36;;;;;;;15.10;14.40;;;18.50;56.50;;;;;;5032897;28;20843;-56
2022/01/13 00:46:03;;;;;;;14.20;13.53;;;18.40;56.70;;;;;;5033083;28;20821;-55
2022/01/13 00:48:30;;;;;;;14.10;13.50;;;18.40;56.90;;;;;;5032867;28;20481;-51
2022/01/13 00:50:56;;;;;;;14.53;13.90;;;18.40;57.20;;;;;;5047608;28;20452;-53
2022/01/13 00:53:24;;;;;;;13.73;13.13;;;18.30;57.30;;;;;;5052657;28;20444;-53
2022/01/13 00:55:58;;;;;;;14.10;13.50;;;18.30;57.80;;;;;;5052022;28;20456;-52
2022/01/13 00:58:26;;;;;;;14.60;13.80;;;18.30;58.10;;;;;;5052708;28;20464;-55
2022/01/13 01:00:53;;;;;;;13.40;12.90;;;18.20;58.50;;;;;;5038349;28;20444;-54
2022/01/13 01:03:20;;;;;;;14.77;14.07;;;18.20;58.80;;;;;;5032540;28;20449;-58
2022/01/13 01:05:47;;;;;;;14.67;13.97;;;18.20;58.90;;;;;;5032636;28;21021;-53
2022/01/13 01:08:14;;;;;;;14.30;13.60;;;18.20;59.10;;;;;;5032511;28;20473;-57
2022/01/13 01:10:45;;;;;;;15.00;14.20;;;18.10;59.30;;;;;;5044587;28;20444;-57
2022/01/13 01:13:13;;;;;;;14.70;14.10;;;18.10;59.40;;;;;;5052337;28;20444;-58
2022/01/13 01:15:45;;;;;;;14.13;13.53;;;18.00;59.50;;;;;;5052681;28;20448;-56
2022/01/13 01:18:23;;;;;;;14.27;13.70;;;18.00;59.80;;;;;;5052271;28;20465;-57
2022/01/13 01:21:04;;;;;;;14.70;14.00;;;18.00;60.20;;;;;;5038767;28;20472;-52
2022/01/13 01:23:35;;;;;;;14.20;13.60;;;17.90;60.80;;;;;;5032215;28;20451;-58
2022/01/13 01:26:08;;;;;;;14.00;13.40;;;17.90;61.60;;;;;;5032295;28;20481;-53
2022/01/13 01:28:43;;;;;;;13.70;13.13;;;17.90;61.90;;;;;;5040476;28;20467;-52
2022/01/13 01:31:12;;;;;;;13.97;13.37;;;17.90;62.40;;;;;;5052273;28;20542;-51
2022/01/13 01:33:43;;;;;;;14.13;13.53;;;17.90;62.80;;;;;;5051865;28;20990;-53
2022/01/13 01:36:12;;;;;;;14.27;13.53;;;17.80;63.10;;;;;;5052139;28;20872;-51
2022/01/13 01:38:43;;;;;;;14.87;14.07;;;17.80;63.40;;;;;;5042999;28;20475;-51
2022/01/13 01:41:11;;;;;;;14.87;14.00;;;17.80;63.70;;;;;;5032088;28;20460;-54
2022/01/13 01:43:38;;;;;;;14.80;14.10;;;17.80;64.10;;;;;;5031843;28;20520;-51
2022/01/13 01:46:04;;;;;;;14.27;13.63;;;17.80;64.30;;;;;;5031996;28;20484;-53
2022/01/13 01:48:35;;;;;;;14.10;13.40;;;17.70;64.60;;;;;;5039949;28;20475;-54
2022/01/13 01:51:04;;;;;;;13.40;12.87;;;17.80;65.10;;;;;;5052830;28;20451;-57
2022/01/13 01:53:31;;;;;;;13.70;13.13;;;17.70;65.40;;;;;;5051756;28;20957;-58
2022/01/13 01:55:58;;;;;;;13.90;13.30;;;17.70;65.80;;;;;;5051814;28;20447;-56
2022/01/13 01:58:27;;;;;;;13.80;13.20;;;17.70;66.20;;;;;;5045162;28;20469;-58
2022/01/13 02:00:54;;;;;;;14.07;13.30;;;17.70;66.50;;;;;;5032057;28;20453;-58
2022/01/13 02:03:23;;;;;;;13.70;13.10;;;17.70;66.60;;;;;;5032511;28;20460;-53
2022/01/13 02:05:50;;;;;;;13.40;12.80;;;17.70;66.90;;;;;;5031973;28;20475;-58
2022/01/13 02:08:17;;;;;;;12.80;12.40;;;17.60;67.50;;;;;;5036012;28;20471;-57
2022/01/13 02:10:44;;;;;;;13.20;12.70;;;17.60;67.80;;;;;;5051738;28;20451;-57
2022/01/13 02:13:14;;;;;;;13.27;12.67;;;17.60;68.10;;;;;;5051558;28;20818;-54
2022/01/13 02:15:59;;;;;;;12.90;12.40;;;17.60;68.60;;;;;;5052044;28;20452;-53
2022/01/13 02:18:25;;;;;;;13.77;13.20;;;17.60;68.50;;;;;;5045847;28;20573;-54
2022/01/13 02:20:55;;;;;;;13.00;12.50;;;17.60;69.00;;;;;;5032123;28;20453;-55
2022/01/13 02:23:33;;;;;;;13.50;13.00;;;17.60;69.50;;;;;;5031866;28;20457;-56
2022/01/13 02:26:00;;;;;;;15.30;14.50;;;17.60;69.90;;;;;;5031459;28;21030;-58
2022/01/13 02:28:30;;;;;;;16.10;15.10;;;17.50;69.90;;;;;;5037832;28;20471;-54
2022/01/13 02:30:57;;;;;;;16.67;15.70;;;17.50;69.30;;;;;;5051715;28;20502;-54
2022/01/13 02:33:24;;;;;;;14.30;13.77;;;17.40;69.80;;;;;;5051358;28;20810;-58
2022/01/13 02:35:50;;;;;;;13.90;13.20;;;17.50;70.90;;;;;;5034305;28;20456;-54
2022/01/13 02:38:18;;;;;;;13.93;13.23;;;17.50;71.00;;;;;;5031897;28;20469;-59
2022/01/13 02:40:51;;;;;;;16.00;15.20;;;17.40;71.10;;;;;;5032128;28;20453;-56
2022/01/13 02:43:18;;;;;;;13.83;13.03;;;17.50;71.50;;;;;;5031898;28;20813;-56
2022/01/13 02:46:02;;;;;;;13.23;12.73;;;17.40;71.30;;;;;;5047440;28;20448;-56
2022/01/13 02:48:30;;;;;;;14.23;13.43;;;17.40;71.70;;;;;;5051349;28;20849;-59
2022/01/13 02:50:57;;;;;;;13.77;13.27;;;17.40;71.70;;;;;;5050255;28;20474;-57
2022/01/13 02:53:26;;;;;;;15.47;14.47;;;17.40;72.00;;;;;;5031651;28;20811;-59
2022/01/13 02:55:56;;;;;;;15.77;14.97;;;17.40;71.90;;;;;;5032082;28;20441;-53
2022/01/13 02:58:23;;;;;;;13.80;13.20;;;17.30;72.70;;;;;;5032048;28;20556;-56
2022/01/13 03:00:50;;;;;;;14.30;13.70;;;17.30;72.30;;;;;;5031475;28;20815;-59
2022/01/13 03:03:18;;;;;;;13.90;13.30;;;17.30;72.70;;;;;;5050944;28;20521;-57
2022/01/13 03:05:45;;;;;;;13.93;13.33;;;17.30;73.00;;;;;;5051070;28;20941;-58
2022/01/13 03:08:12;;;;;;;13.07;12.50;;;17.30;73.20;;;;;;5049493;28;20901;-57
2022/01/13 03:10:40;;;;;;;14.53;13.83;;;17.20;73.40;;;;;;5052827;28;20471;-58
2022/01/13 03:13:07;;;;;;;14.23;13.53;;;17.30;73.00;;;;;;5051880;28;20448;-53
2022/01/13 03:15:34;;;;;;;14.80;14.13;;;17.20;72.90;;;;;;5051206;28;20937;-58
2022/01/13 03:18:01;;;;;;;15.87;15.00;;;17.20;73.70;;;;;;5047456;28;20857;-59
2022/01/13 03:20:28;;;;;;;15.47;14.73;;;17.20;73.50;;;;;;5035216;28;20460;-56
2022/01/13 03:22:55;;;;;;;13.90;13.20;;;17.20;73.30;;;;;;5035081;28;20449;-55
2022/01/13 03:25:23;;;;;;;13.60;13.07;;;17.20;73.70;;;;;;5034894;28;20452;-57
2022/01/13 03:27:57;;;;;;;14.27;13.60;;;17.20;74.40;;;;;;5037569;28;20865;-55
2022/01/13 03:30:24;;;;;;;15.17;14.37;;;17.30;74.70;;;;;;5054438;28;20941;-54
2022/01/13 03:32:51;;;;;;;13.90;13.37;;;17.20;74.50;;;;;;5054105;28;20448;-57
2022/01/13 03:35:18;;;;;;;13.93;13.27;;;17.20;75.10;;;;;;5054593;28;20439;-55
2022/01/13 03:37:44;;;;;;;14.13;13.50;;;17.20;75.60;;;;;;5052396;28;20829;-53
2022/01/13 03:40:13;;;;;;;13.93;13.30;;;17.20;76.40;;;;;;5034562;28;20503;-58
2022/01/13 03:42:40;;;;;;;14.40;13.70;;;17.20;76.40;;;;;;5034315;28;20460;-54
2022/01/13 03:45:09;;;;;;;14.47;13.87;;;17.10;77.00;;;;;;5034756;28;20499;-58
2022/01/13 03:47:36;;;;;;;15.70;14.90;;;17.20;77.80;;;;;;5034265;28;20908;-53
2022/01/13 03:50:04;;;;;;;14.10;13.50;;;17.20;77.90;;;;;;5054462;28;20444;-54
2022/01/13 03:53:09;;;;;;;13.57;12.97;;;17.10;77.70;;;;;;5054181;28;20448;-59
2022/01/13 03:56:24;;;;;;;13.17;12.57;;;17.20;78.10;;;;;;5053873;28;20447;-59
2022/01/13 03:59:33;;;;;;;14.43;13.73;;;17.20;78.30;;;;;;5043319;28;20472;-59
2022/01/13 04:02:04;;;;;;;13.10;12.60;;;17.10;78.20;;;;;;5034135;28;20437;-54
2022/01/13 04:04:32;;;;;;;15.33;14.53;;;17.10;78.50;;;;;;5034676;28;20449;-54
2022/01/13 04:07:13;;;;;;;14.10;13.50;;;17.10;78.80;;;;;;5034581;28;20484;-57
2022/01/13 04:10:19;;;;;;;15.80;15.00;;;17.10;79.30;;;;;;5051140;28;20809;-56
2022/01/13 04:12:46;;;;;;;14.07;13.47;;;17.10;78.10;;;;;;5053945;28;20452;-59
2022/01/13 04:15:17;;;;;;;14.50;13.80;;;17.00;78.80;;;;;;5053707;28;20953;-56
2022/01/13 04:17:45;;;;;;;14.07;13.40;;;17.00;79.20;;;;;;5053082;28;20467;-58
2022/01/13 04:20:12;;;;;;;15.17;14.47;;;17.00;79.20;;;;;;5032824;28;20880;-57
2022/01/13 04:22:39;;;;;;;14.37;13.77;;;17.10;78.20;;;;;;5034220;28;20451;-57
2022/01/13 04:25:07;;;;;;;15.30;14.50;;;17.00;79.40;;;;;;5034266;28;20934;-53
2022/01/13 04:27:38;;;;;;;14.67;14.07;;;17.10;79.60;;;;;;5033916;28;21023;-58
2022/01/13 04:32:55;;;;;;;15.37;14.57;;;17.10;79.40;;;;;;5044248;28;20486;-57
2022/01/13 04:35:21;;;;;;;16.43;15.63;;;17.00;79.20;;;;;;5053910;28;20433;-56
2022/01/13 04:37:48;;;;;;;15.70;15.00;;;17.00;78.90;;;;;;5053269;28;20471;-59
2022/01/13 04:40:15;;;;;;;16.23;15.50;;;17.00;79.10;;;;;;5034062;28;20445;-57
2022/01/13 04:42:43;;;;;;;16.03;15.20;;;17.00;79.70;;;;;;5033959;28;20437;-57
2022/01/13 04:45:11;;;;;;;15.13;14.43;;;17.00;79.10;;;;;;5034377;28;20952;-57
2022/01/13 04:47:38;;;;;;;14.30;13.70;;;17.00;80.10;;;;;;5046554;28;20484;-54
2022/01/13 04:50:07;;;;;;;15.30;14.70;;;17.00;80.10;;;;;;5054201;28;20455;-56
2022/01/13 04:52:33;;;;;;;15.27;14.47;;;17.00;80.40;;;;;;5053617;28;20449;-59
2022/01/13 04:55:08;;;;;;;13.97;13.47;;;17.00;80.50;;;;;;5053457;28;20448;-55
2022/01/13 04:57:34;;;;;;;14.57;14.00;;;17.00;80.80;;;;;;5041266;28;20468;-57
2022/01/13 05:00:01;;;;;;;15.43;14.83;;;17.00;80.70;;;;;;5033763;28;20453;-59
2022/01/13 05:02:28;;;;;;;16.37;15.40;;;17.00;80.70;;;;;;5033304;28;20449;-56
2022/01/13 05:04:54;;;;;;;16.23;15.53;;;16.90;80.80;;;;;;5033672;28;20459;-52
2022/01/13 05:07:22;;;;;;;15.63;14.93;;;17.00;81.60;;;;;;5043304;28;20476;-57
2022/01/13 05:09:49;;;;;;;17.03;16.07;;;17.00;81.90;;;;;;5053085;28;20447;-59
2022/01/13 05:12:17;;;;;;;16.27;15.47;;;17.00;81.30;;;;;;5052634;28;20448;-59
2022/01/13 05:14:45;;;;;;;14.40;13.77;;;16.90;81.00;;;;;;5052806;28;20452;-59
2022/01/13 05:17:33;;;;;;;15.70;15.00;;;17.00;82.40;;;;;;5043925;28;20449;-59
2022/01/13 05:20:12;;;;;;;16.73;15.93;;;17.00;81.90;;;;;;5032649;28;20449;-59
2022/01/13 05:22:40;;;;;;;16.10;15.40;;;17.00;82.20;;;;;;5032670;28;20506;-58
2022/01/13 05:25:07;;;;;;;16.30;15.60;;;16.90;82.20;;;;;;5032836;28;20524;-58
2022/01/13 05:27:34;;;;;;;15.70;15.10;;;16.90;81.80;;;;;;5044150;28;20488;-53
2022/01/13 05:30:03;;;;;;;16.17;15.40;;;16.90;82.00;;;;;;5053662;28;20794;-54
2022/01/13 05:32:30;;;;;;;18.27;16.60;;;16.90;82.20;;;;;;5053415;28;20954;-56
2022/01/13 05:34:56;;;;;;;20.93;18.37;;;17.00;99.90;;;;;;5052973;28;20455;-55
2022/01/13 05:37:23;;;;;;;18.57;16.53;;;17.10;99.90;;;;;;5042862;28;20469;-56
2022/01/13 05:39:51;;;;;;;25.90;14.87;;;17.10;99.90;;;;;;5032796;28;20453;-59
2022/01/13 05:42:18;;;;;;;26.53;13.50;;;17.30;99.90;;;;;;5032366;28;20448;-56
2022/01/13 05:44:45;;;;;;;22.27;12.47;;;17.30;99.90;;;;;;5032901;28;20453;-57
2022/01/13 05:47:13;;;;;;;21.83;12.87;;;17.40;99.90;;;;;;5040116;28;20961;-54
2022/01/13 05:49:41;;;;;;;22.93;13.20;;;17.40;99.90;;;;;;5052434;28;20455;-59
2022/01/13 05:52:09;;;;;;;21.60;14.40;;;17.50;99.90;;;;;;5051179;28;20930;-59
2022/01/13 05:54:35;;;;;;;25.87;17.17;;;18.10;99.90;;;;;;5031749;28;20445;-57
2022/01/13 05:57:04;;;;;;;28.80;16.87;;;18.60;99.90;;;;;;5031822;28;20448;-56
2022/01/13 05:59:32;;;;;;;28.50;19.83;;;18.80;99.90;;;;;;5031767;28;20468;-56
2022/01/13 06:01:59;;;;;;;26.57;18.00;;;19.00;99.90;;;;;;5031726;28;20453;-56
2022/01/13 06:04:25;;;;;;;25.93;16.83;;;19.20;99.90;;;;;;5031929;28;20449;-58
2022/01/13 06:06:52;;;;;;;19.83;17.93;;;19.40;99.90;;;;;;5031868;28;20456;-53
2022/01/13 06:09:19;;;;;;;21.67;19.20;;;19.50;99.90;;;;;;5031659;28;20485;-52
2022/01/13 06:11:55;;;;;;;21.00;17.87;;;19.60;99.90;;;;;;5031585;28;20508;-52
2022/01/13 06:14:23;;;;;;;24.20;19.37;;;19.60;99.90;;;;;;5031758;28;20448;-54
2022/01/13 06:16:50;;;;;;;27.60;19.97;;;19.70;99.90;;;;;;5031722;28;20453;-57
2022/01/13 06:19:16;;;;;;;20.37;17.90;;;19.70;99.90;;;;;;5031567;28;20467;-57
2022/01/13 06:21:43;;;;;;;18.03;16.73;;;19.80;99.90;;;;;;5031264;28;20441;-52
2022/01/13 06:24:10;;;;;;;19.23;17.20;;;19.80;99.90;;;;;;5031582;28;20824;-55
2022/01/13 06:26:36;;;;;;;22.00;18.20;;;19.80;99.90;;;;;;5031597;28;20854;-51
2022/01/13 06:29:04;;;;;;;21.23;19.03;;;19.80;99.90;;;;;;5031352;28;20489;-52
2022/01/13 06:31:32;;;;;;;18.03;16.43;;;19.80;99.90;;;;;;5031211;28;20460;-53
2022/01/13 06:33:59;;;;;;;19.00;17.43;;;19.80;99.90;;;;;;5031825;28;20950;-55
2022/01/13 06:36:25;;;;;;;19.50;17.63;;;19.80;99.90;;;;;;5031720;28;20449;-58
2022/01/13 06:38:52;;;;;;;19.10;17.47;;;19.70;99.90;;;;;;5031464;28;20861;-57
2022/01/13 06:41:19;;;;;;;21.77;19.60;;;19.80;99.90;;;;;;5031412;28;20795;-56
2022/01/13 06:43:46;;;;;;;20.07;18.47;;;19.80;99.90;;;;;;5031283;28;20523;-52
2022/01/13 06:46:14;;;;;;;19.83;18.40;;;19.70;99.80;;;;;;5031366;28;20456;-51
2022/01/13 06:48:42;;;;;;;20.00;18.60;;;19.70;99.40;;;;;;5031172;28;20488;-51
2022/01/13 06:51:09;;;;;;;18.57;17.40;;;19.70;99.00;;;;;;5031255;28;20476;-51
2022/01/13 06:53:37;;;;;;;18.77;17.13;;;19.70;98.60;;;;;;5032789;28;20453;-51
2022/01/13 06:56:04;;;;;;;19.87;18.30;;;19.70;98.00;;;;;;5035137;28;20456;-51
2022/01/13 06:58:31;;;;;;;18.37;17.07;;;19.60;97.40;;;;;;5035025;28;20865;-49
2022/01/13 07:00:58;;;;;;;18.53;17.03;;;19.60;97.10;;;;;;5035120;28;20460;-51
2022/01/13 07:03:24;;;;;;;19.77;18.00;;;19.50;96.90;;;;;;5034708;28;20787;-52
2022/01/13 07:05:52;;;;;;;19.43;17.93;;;19.50;96.30;;;;;;5034843;28;20456;-52
2022/01/13 07:08:19;;;;;;;19.80;18.07;;;19.50;96.00;;;;;;5034745;28;20905;-52
2022/01/13 07:10:46;;;;;;;19.70;18.13;;;19.40;95.20;;;;;;5034980;28;20444;-52
2022/01/13 07:13:13;;;;;;;18.03;16.60;;;19.40;95.30;;;;;;5034675;28;20445;-57
2022/01/13 07:15:39;;;;;;;18.93;17.50;;;19.40;95.10;;;;;;5034874;28;20463;-53
2022/01/13 07:18:06;;;;;;;17.90;16.60;;;19.30;94.70;;;;;;5034690;28;20876;-57
2022/01/13 07:20:33;;;;;;;17.47;16.17;;;19.30;94.60;;;;;;5034759;28;20449;-57
2022/01/13 07:23:02;;;;;;;17.20;15.40;;;19.30;94.20;;;;;;5034616;28;20449;-53
2022/01/13 07:25:29;;;;;;;19.00;17.47;;;19.30;94.00;;;;;;5034552;28;20449;-55
2022/01/13 07:27:56;;;;;;;16.77;15.30;;;19.20;93.60;;;;;;5034359;28;20522;-57
2022/01/13 07:30:23;;;;;;;14.73;13.93;;;19.20;93.40;;;;;;5034480;28;21005;-57
2022/01/13 07:32:50;;;;;;;15.37;14.37;;;19.10;93.10;;;;;;5034436;28;20453;-52
2022/01/13 07:35:17;;;;;;;17.00;15.70;;;19.10;93.10;;;;;;5034419;28;20816;-55
2022/01/13 07:37:43;;;;;;;17.03;15.63;;;19.10;92.80;;;;;;5034249;28;20464;-53
2022/01/13 07:40:15;;;;;;;16.40;15.00;;;19.00;92.70;;;;;;5034362;28;20452;-52
2022/01/13 07:42:42;;;;;;;17.40;16.10;;;19.00;92.40;;;;;;5034239;28;20452;-55
2022/01/13 07:45:10;;;;;;;16.33;15.20;;;18.90;92.30;;;;;;5034490;28;20453;-57
2022/01/13 07:47:37;;;;;;;15.30;14.00;;;18.90;92.10;;;;;;5034716;28;20523;-49
2022/01/13 07:50:05;;;;;;;16.03;15.00;;;18.80;92.00;;;;;;5033977;28;20449;-48
2022/01/13 07:52:31;;;;;;;16.03;15.00;;;18.80;91.90;;;;;;5033882;28;20803;-49
2022/01/13 07:54:58;;;;;;;14.30;13.60;;;18.80;91.50;;;;;;5034095;28;20546;-46
2022/01/13 07:57:26;;;;;;;14.63;13.53;;;18.70;91.40;;;;;;5033977;28;20492;-54
2022/01/13 07:59:53;;;;;;;15.30;14.37;;;18.70;91.30;;;;;;5033959;28;20468;-54
2022/01/13 08:02:20;;;;;;;16.10;15.00;;;18.60;91.20;;;;;;5033600;28;20449;-49
2022/01/13 08:04:48;;;;;;;16.13;15.23;;;18.60;91.00;;;;;;5033825;28;20506;-49
2022/01/13 08:07:15;;;;;;;15.43;14.43;;;18.60;91.40;;;;;;5033863;28;20810;-48
2022/01/13 08:09:41;;;;;;;16.60;15.30;;;18.50;90.90;;;;;;5033801;28;20481;-49
2022/01/13 08:12:09;;;;;;;15.37;14.30;;;18.40;90.80;;;;;;5033760;28;20449;-47
2022/01/13 08:14:37;;;;;;;15.03;14.00;;;18.40;90.70;;;;;;5033651;28;20445;-48
2022/01/13 08:17:06;;;;;;;14.60;13.70;;;18.40;90.60;;;;;;5033577;28;20452;-49
2022/01/13 08:19:48;;;;;;;15.07;14.13;;;18.30;90.50;;;;;;5033382;28;20742;-51
2022/01/13 08:22:16;;;;;;;16.10;15.00;;;18.20;90.40;;;;;;5033211;28;20532;-49
2022/01/13 08:24:43;;;;;;;14.60;13.63;;;18.10;90.20;;;;;;5033458;28;20935;-50
2022/01/13 08:27:09;;;;;;;16.43;15.43;;;18.10;90.50;;;;;;5033544;28;20796;-54
2022/01/13 08:29:37;;;;;;;14.07;13.23;;;18.10;90.50;;;;;;5033405;28;20481;-47
2022/01/13 08:32:05;;;;;;;14.60;13.80;;;18.00;90.60;;;;;;5033124;28;20458;-50
2022/01/13 08:34:32;;;;;;;15.97;14.97;;;18.00;90.50;;;;;;5033216;28;20449;-49
2022/01/13 08:36:58;;;;;;;15.60;14.70;;;17.90;90.40;;;;;;5033542;28;20453;-50
2022/01/13 08:39:25;;;;;;;16.30;15.20;;;17.90;90.60;;;;;;5033308;28;20449;-53
2022/01/13 08:41:52;;;;;;;16.60;15.50;;;17.80;90.50;;;;;;5033046;28;20445;-51
2022/01/13 08:44:19;;;;;;;16.20;15.20;;;17.80;90.40;;;;;;5033206;28;20448;-48
2022/01/13 08:46:47;;;;;;;15.57;14.50;;;17.70;90.30;;;;;;5033202;28;20453;-48
2022/01/13 08:49:14;;;;;;;15.10;14.30;;;17.70;90.70;;;;;;5032673;28;20488;-49
2022/01/13 08:51:41;;;;;;;15.57;14.47;;;17.70;90.70;;;;;;5033041;28;20456;-48
2022/01/13 08:54:08;;;;;;;17.00;15.90;;;17.60;90.40;;;;;;5033054;28;20449;-50
2022/01/13 08:56:34;;;;;;;13.57;12.87;;;17.60;90.60;;;;;;5032907;28;20449;-54
2022/01/13 08:59:01;;;;;;;15.20;13.87;;;17.60;90.70;;;;;;5032745;28;20469;-48
2022/01/13 09:01:29;;;;;;;16.00;14.77;;;17.60;90.60;;;;;;5032625;28;20957;-49
2022/01/13 09:03:57;;;;;;;16.03;15.13;;;17.50;90.60;;;;;;5032777;28;20437;-50
2022/01/13 09:06:24;;;;;;;14.77;14.07;;;17.50;90.40;;;;;;5032768;28;20448;-47
2022/01/13 09:08:50;;;;;;;15.93;15.03;;;17.60;90.30;;;;;;5032467;28;20494;-51
2022/01/13 09:11:17;;;;;;;16.30;15.10;;;17.60;90.00;;;;;;5032639;28;20935;-48
2022/01/13 09:13:44;;;;;;;15.20;14.43;;;17.60;89.70;;;;;;5032383;28;20457;-49
2022/01/13 09:16:16;;;;;;;16.13;15.03;;;17.50;89.50;;;;;;5032047;28;21089;-49
2022/01/13 09:19:07;;;;;;;15.47;14.57;;;17.40;89.50;;;;;;5032525;28;20469;-52
2022/01/13 09:21:38;;;;;;;15.30;14.40;;;17.40;90.00;;;;;;5032239;28;20445;-52
2022/01/13 09:24:06;;;;;;;15.97;14.97;;;17.60;89.80;;;;;;5032321;28;20481;-49
2022/01/13 09:26:32;;;;;;;16.73;15.60;;;17.70;88.30;;;;;;5032447;28;20871;-48
2022/01/13 09:28:59;;;;;;;17.87;16.77;;;17.70;87.20;;;;;;5032157;28;20493;-52
2022/01/13 09:31:27;;;;;;;16.67;15.67;;;17.80;87.00;;;;;;5032208;28;20449;-56
2022/01/13 09:33:54;;;;;;;15.10;14.30;;;17.80;86.40;;;;;;5032071;28;20966;-52
2022/01/13 09:36:21;;;;;;;14.90;14.00;;;17.90;85.80;;;;;;5032164;28;20452;-50
2022/01/13 09:38:49;;;;;;;16.17;15.47;;;17.90;84.90;;;;;;5032193;28;20830;-54
2022/01/13 09:41:16;;;;;;;18.17;16.90;;;17.90;84.20;;;;;;5032085;28;20449;-51
2022/01/13 09:43:45;;;;;;;16.07;15.07;;;18.00;83.30;;;;;;5031876;28;20927;-48
2022/01/13 09:46:12;;;;;;;16.00;15.10;;;18.00;83.00;;;;;;5032046;28;20483;-50
2022/01/13 09:48:40;;;;;;;15.80;15.07;;;18.00;82.80;;;;;;5031732;28;20859;-47
2022/01/13 09:51:07;;;;;;;15.03;14.10;;;18.10;82.70;;;;;;5031976;28;20862;-47
2022/01/13 09:53:34;;;;;;;15.40;14.50;;;18.20;81.90;;;;;;5031648;28;20525;-50
2022/01/13 09:56:03;;;;;;;17.20;16.10;;;18.30;80.90;;;;;;5031779;28;20954;-47
2022/01/13 09:58:30;;;;;;;15.10;14.33;;;18.40;79.90;;;;;;5031888;28;20488;-49
2022/01/13 10:00:58;;;;;;;15.50;14.60;;;18.40;79.10;;;;;;5031688;28;20449;-47
2022/01/13 10:03:27;;;;;;;15.83;15.13;;;18.40;77.90;;;;;;5031645;28;20448;-51
2022/01/13 10:05:56;;;;;;;14.37;13.57;;;18.50;77.40;;;;;;5031693;28;20484;-46
2022/01/13 10:08:24;;;;;;;15.73;14.87;;;18.50;76.80;;;;;;5031597;28;20500;-46
2022/01/13 10:10:51;;;;;;;15.00;14.20;;;18.60;76.10;;;;;;5031648;28;20475;-50
2022/01/13 10:13:39;;;;;;;13.20;12.50;;;18.60;75.20;;;;;;5031475;28;20817;-47
2022/01/13 10:16:24;;;;;;;15.17;14.23;;;18.60;74.50;;;;;;5031581;28;20488;-51
2022/01/13 10:18:51;;;;;;;14.60;13.60;;;18.70;73.70;;;;;;5031551;28;20543;-51
2022/01/13 10:21:19;;;;;;;13.90;13.10;;;18.70;73.30;;;;;;5031594;28;20445;-52
2022/01/13 10:24:09;;;;;;;14.27;13.57;;;18.70;72.90;;;;;;5031331;28;20449;-47
2022/01/13 10:26:36;;;;;;;15.00;14.20;;;18.70;72.10;;;;;;5031501;28;20867;-48
2022/01/13 10:29:07;;;;;;;13.93;13.13;;;18.70;71.40;;;;;;5034011;28;20857;-50
2022/01/13 10:31:48;;;;;;;15.27;14.47;;;18.70;71.70;;;;;;5035410;28;20441;-48
2022/01/13 10:34:23;;;;;;;15.57;14.77;;;18.70;70.80;;;;;;5035534;28;20445;-49
2022/01/13 10:37:05;;;;;;;14.33;13.67;;;18.80;70.20;;;;;;5035660;28;20455;-48
2022/01/13 10:39:54;;;;;;;15.13;14.23;;;18.90;69.60;;;;;;5035473;28;20452;-48
2022/01/13 10:45:30;;;;;;;16.33;15.43;;;18.80;68.20;;;;;;5019918;28;20898;-46
2022/01/13 10:47:59;;;;;;;17.33;16.33;;;18.90;67.90;;;;;;5035356;28;20526;-47
2022/01/13 10:50:32;;;;;;;18.97;17.40;;;18.80;67.50;;;;;;5035498;28;20492;-48
2022/01/13 10:53:04;;;;;;;79.70;47.13;;;18.70;69.50;;;;;;5048168;28;20467;-49
2022/01/13 10:55:35;;;;;;;123.70;64.80;;;18.70;72.20;;;;;;5055450;28;20443;-52
2022/01/13 10:58:02;;;;;;;153.13;79.20;;;18.70;73.60;;;;;;5055242;28;20460;-53
2022/01/13 11:00:33;;;;;;;181.70;85.90;;;18.80;76.70;;;;;;5038718;28;20445;-50
2022/01/13 11:03:03;;;;;;;170.80;81.73;;;18.80;79.10;;;;;;5035478;28;20456;-53
2022/01/13 11:05:32;;;;;;;181.77;89.67;;;18.90;79.80;;;;;;5035372;28;20449;-53
2022/01/13 11:08:01;;;;;;;183.80;84.10;;;19.00;80.20;;;;;;5035628;28;20476;-51
2022/01/13 11:10:28;;;;;;;184.33;88.10;;;19.10;81.80;;;;;;5051422;28;20491;-54
2022/01/13 11:12:59;;;;;;;168.37;87.03;;;19.20;81.50;;;;;;5052421;28;20447;-50
2022/01/13 11:15:27;;;;;;;170.43;84.00;;;19.10;80.90;;;;;;5051730;28;20456;-52
2022/01/13 11:17:57;;;;;;;169.23;80.20;;;19.10;82.10;;;;;;5056344;28;20482;-52
2022/01/13 11:20:26;;;;;;;153.17;79.97;;;19.20;81.80;;;;;;5056228;28;20447;-52
2022/01/13 11:22:55;;;;;;;150.70;75.90;;;19.30;80.80;;;;;;5054171;28;20470;-52
2022/01/13 11:25:24;;;;;;;134.33;75.40;;;19.40;79.80;;;;;;5036291;28;20832;-50
2022/01/13 11:27:52;;;;;;;138.37;69.57;;;19.40;79.00;;;;;;5040041;28;20992;-51
2022/01/13 11:30:21;;;;;;;137.67;68.53;;;19.50;78.80;;;;;;5056273;28;20479;-55
2022/01/13 11:32:50;;;;;;;123.10;65.67;;;19.40;78.00;;;;;;5044235;28;20947;-50
2022/01/13 11:35:22;;;;;;;144.03;68.30;;;19.60;77.70;;;;;;5036109;28;20445;-51
2022/01/13 11:37:50;;;;;;;120.47;63.10;;;19.60;76.50;;;;;;5036332;28;20493;-52
2022/01/13 11:40:35;;;;;;;114.60;59.17;;;19.80;75.50;;;;;;5034927;28;20452;-52
2022/01/13 11:43:03;;;;;;;116.30;60.50;;;20.10;74.10;;;;;;5049483;28;20459;-54
2022/01/13 11:45:35;;;;;;;94.17;52.87;;;20.50;71.60;;;;;;5034628;28;20816;-53
2022/01/13 11:48:15;;;;;;;96.80;54.73;;;20.90;68.20;;;;;;5034089;28;20473;-48
2022/01/13 11:50:47;;;;;;;96.63;57.50;;;20.90;65.80;;;;;;5034268;28;20534;-52
2022/01/13 11:53:26;;;;;;;90.93;54.93;;;21.10;63.90;;;;;;5033962;28;20476;-47
2022/01/13 11:55:56;;;;;;;96.70;54.47;;;21.20;62.20;;;;;;5033992;28;20448;-48
2022/01/13 11:58:25;;;;;;;84.30;50.37;;;21.40;60.50;;;;;;5033737;28;20884;-49
2022/01/13 12:00:53;;;;;;;81.23;48.60;;;21.50;58.90;;;;;;5033942;28;20536;-47
2022/01/13 12:03:25;;;;;;;89.47;51.03;;;21.70;58.00;;;;;;5033674;28;20453;-47
2022/01/13 12:05:54;;;;;;;81.20;49.00;;;21.90;56.80;;;;;;5033716;28;20460;-49
2022/01/13 12:08:36;;;;;;;74.23;48.97;;;22.10;55.90;;;;;;5033783;28;20469;-47
2022/01/13 12:11:03;;;;;;;81.53;48.33;;;22.10;55.00;;;;;;5033678;28;20499;-48
2022/01/13 12:13:49;;;;;;;69.87;47.03;;;22.00;54.50;;;;;;5033589;28;20869;-52
2022/01/13 12:16:16;;;;;;;74.93;47.10;;;22.00;54.40;;;;;;5033827;28;20441;-52
2022/01/13 12:19:13;;;;;;;58.13;41.43;;;22.00;54.40;;;;;;5033478;28;20978;-52
2022/01/13 12:21:43;;;;;;;66.80;42.97;;;21.80;54.10;;;;;;5021186;28;21031;-53
2022/01/13 12:24:12;;;;;;;71.00;44.30;;;21.90;54.20;;;;;;5033567;28;20967;-53
2022/01/13 12:26:50;;;;;;;68.40;45.30;;;22.00;53.60;;;;;;5033440;28;20449;-51
2022/01/13 12:29:19;;;;;;;66.10;42.23;;;22.00;53.40;;;;;;5033366;28;20465;-54
2022/01/13 12:31:54;;;;;;;67.27;43.30;;;22.10;53.20;;;;;;5033272;28;20457;-57
2022/01/13 12:34:24;;;;;;;61.60;40.57;;;22.10;52.80;;;;;;5033447;28;20449;-55
2022/01/13 12:36:52;;;;;;;58.80;37.83;;;22.00;52.60;;;;;;5033464;28;20448;-51
2022/01/13 12:39:19;;;;;;;53.87;40.50;;;21.90;52.50;;;;;;5033050;28;20991;-50
2022/01/13 12:41:58;;;;;;;55.03;38.37;;;21.80;52.50;;;;;;5033034;28;20453;-49
2022/01/13 12:47:06;;;;;;;49.57;37.37;;;21.50;52.70;;;;;;5032650;28;20430;-49